createdAt,value
2018-11-26T05:01:01.047Z,97.78
2018-11-26T05:02:00.919Z,97.88
2018-11-26T05:03:53.598Z,97.69
2018-11-26T05:04:53.465Z,97.22
2018-11-26T05:06:46.144Z,97.88
2018-11-26T05:07:46.009Z,97.50
2018-11-26T05:09:38.671Z,97.31
2018-11-26T05:10:38.556Z,97.41
2018-11-26T05:12:31.232Z,97.78
2018-11-26T05:13:31.110Z,97.22
2018-11-26T05:15:23.765Z,97.22
2018-11-26T05:16:23.656Z,97.88
2018-11-26T05:18:16.329Z,97.50
2018-11-26T05:19:16.198Z,97.41
2018-11-26T05:21:08.865Z,97.22
2018-11-26T05:22:08.747Z,97.22
2018-11-26T05:24:01.442Z,97.69
2018-11-26T05:25:01.301Z,97.22
2018-11-26T05:26:53.969Z,97.31
2018-11-26T05:27:53.843Z,97.50
2018-11-26T05:29:46.514Z,97.41
2018-11-26T05:30:46.389Z,97.60
2018-11-26T05:32:39.069Z,97.22
2018-11-26T05:33:38.942Z,96.93
2018-11-26T05:35:31.596Z,96.93
2018-11-26T05:36:31.486Z,96.83
2018-11-26T05:38:24.163Z,97.22
2018-11-26T05:39:24.033Z,97.31
2018-11-26T05:41:16.695Z,97.31
2018-11-26T05:42:16.579Z,97.22
2018-11-26T05:44:09.259Z,97.12
2018-11-26T05:45:09.126Z,97.22
2018-11-26T05:47:01.799Z,97.22
2018-11-26T05:48:01.678Z,97.31
2018-11-26T05:49:54.333Z,97.31
2018-11-26T05:50:54.219Z,97.41
2018-11-26T05:52:46.891Z,97.31
2018-11-26T05:53:46.762Z,97.22
2018-11-26T05:55:39.518Z,97.50
2018-11-26T05:56:39.316Z,97.12
2018-11-26T05:58:31.989Z,97.31
2018-11-26T05:59:31.855Z,97.31
2018-11-26T06:01:24.525Z,97.31
2018-11-26T06:02:24.405Z,97.02
2018-11-26T06:04:17.077Z,97.22
2018-11-26T06:05:16.948Z,97.22
2018-11-26T06:07:09.630Z,97.12
2018-11-26T06:08:09.500Z,97.31
2018-11-26T06:10:02.161Z,97.31
2018-11-26T06:11:02.044Z,97.31
2018-11-26T06:12:54.721Z,97.50
2018-11-26T06:13:54.595Z,97.50
2018-11-26T06:15:47.255Z,97.31
2018-11-26T06:16:53.427Z,97.22
2018-11-26T06:18:39.816Z,96.93
2018-11-26T06:19:39.686Z,97.50
2018-11-26T06:21:32.342Z,97.31
2018-11-26T06:22:32.231Z,97.22
2018-11-26T06:24:24.911Z,97.50
2018-11-26T06:25:24.775Z,97.31
2018-11-26T06:27:17.437Z,97.31
2018-11-26T06:28:17.319Z,97.31
2018-11-26T06:30:09.999Z,97.50
2018-11-26T06:31:09.868Z,97.31
2018-11-26T06:33:02.546Z,97.31
2018-11-26T06:34:02.426Z,97.02
2018-11-26T06:35:55.086Z,96.83
2018-11-26T06:36:54.970Z,96.74
2018-11-26T06:38:47.654Z,97.31
2018-11-26T06:39:47.520Z,97.31
2018-11-26T06:41:40.217Z,97.36
2018-11-26T06:42:40.068Z,97.31
2018-11-26T06:44:32.744Z,96.93
2018-11-26T06:45:32.620Z,97.12
2018-11-26T06:47:25.281Z,97.22
2018-11-26T06:48:25.162Z,97.22
2018-11-26T06:50:17.846Z,97.31
2018-11-26T06:51:17.709Z,96.74
2018-11-26T06:53:10.392Z,96.83
2018-11-26T06:54:10.256Z,96.74
2018-11-26T06:56:02.922Z,97.50
2018-11-26T06:57:02.807Z,97.50
2018-11-26T06:58:55.488Z,97.12
2018-11-26T06:59:55.350Z,96.83
2018-11-26T07:01:48.521Z,97.50
2018-11-26T07:02:48.390Z,97.41
2018-11-26T07:04:41.068Z,97.78
2018-11-26T07:05:40.941Z,97.02
2018-11-26T07:07:33.601Z,97.27
2018-11-26T07:08:33.490Z,97.36
2018-11-26T07:10:26.249Z,96.83
2018-11-26T07:11:26.123Z,97.12
2018-11-26T07:13:18.794Z,97.31
2018-11-26T07:14:18.671Z,97.22
2018-11-26T07:16:11.334Z,97.02
2018-11-26T07:17:11.222Z,97.22
2018-11-26T07:19:03.900Z,97.31
2018-11-26T07:20:03.773Z,97.31
2018-11-26T07:21:56.440Z,97.50
2018-11-26T07:22:56.325Z,97.78
2018-11-26T07:24:49.001Z,97.69
2018-11-26T07:25:48.869Z,97.22
2018-11-26T07:27:41.535Z,97.31
2018-11-26T07:28:41.423Z,97.22
2018-11-26T07:30:34.098Z,97.02
2018-11-26T07:31:33.974Z,97.02
2018-11-26T07:33:26.649Z,96.88
2018-11-26T07:34:26.520Z,97.41
2018-11-26T07:36:19.178Z,97.50
2018-11-26T07:37:19.070Z,97.50
2018-11-26T07:39:11.745Z,97.50
2018-11-26T07:40:11.615Z,97.31
2018-11-26T07:42:04.276Z,97.36
2018-11-26T07:43:04.165Z,97.31
2018-11-26T07:44:56.842Z,97.22
2018-11-26T07:45:56.715Z,97.12
2018-11-26T07:47:49.372Z,97.02
2018-11-26T07:48:49.263Z,97.22
2018-11-26T07:50:41.936Z,97.31
2018-11-26T07:51:41.808Z,97.50
2018-11-26T07:53:34.470Z,97.50
2018-11-26T07:54:34.350Z,96.83
2018-11-26T07:56:27.027Z,96.83
2018-11-26T07:57:26.895Z,96.93
2018-11-26T07:59:19.568Z,97.27
2018-11-26T08:00:19.449Z,96.98
2018-11-26T08:02:12.099Z,96.45
2018-11-26T08:03:11.991Z,96.45
2018-11-26T08:05:04.663Z,97.12
2018-11-26T08:06:08.748Z,97.12
2018-11-26T08:07:57.189Z,97.12
2018-11-26T08:08:57.082Z,97.31
2018-11-26T08:10:49.759Z,97.31
2018-11-26T08:11:49.629Z,97.12
2018-11-26T08:13:42.288Z,97.02
2018-11-26T08:14:42.176Z,96.83
2018-11-26T08:16:34.879Z,96.83
2018-11-26T08:17:34.757Z,97.41
2018-11-26T08:19:27.429Z,97.36
2018-11-26T08:20:27.292Z,97.02
2018-11-26T08:22:19.954Z,97.07
2018-11-26T08:23:19.851Z,97.17
2018-11-26T08:25:12.520Z,96.79
2018-11-26T08:26:12.397Z,96.79
2018-11-26T08:28:05.069Z,96.50
2018-11-26T08:29:04.944Z,97.27
2018-11-26T08:30:57.623Z,96.69
2018-11-26T08:31:57.495Z,96.12
2018-11-26T08:33:50.239Z,96.60
2018-11-26T08:34:50.119Z,96.50
2018-11-26T08:36:42.800Z,96.12
2018-11-26T08:37:42.674Z,96.31
2018-11-26T08:39:35.347Z,96.60
2018-11-26T08:40:35.224Z,96.79
2018-11-26T08:42:27.883Z,96.22
2018-11-26T08:43:27.769Z,95.94
2018-11-26T08:45:20.451Z,96.50
2018-11-26T08:46:20.331Z,96.41
2018-11-26T08:48:12.978Z,96.69
2018-11-26T08:49:12.873Z,95.94
2018-11-26T08:51:05.545Z,96.12
2018-11-26T08:52:05.427Z,96.03
2018-11-26T08:53:58.083Z,95.94
2018-11-26T08:54:57.971Z,95.75
2018-11-26T08:56:50.640Z,95.75
2018-11-26T08:57:50.515Z,95.75
2018-11-26T08:59:43.194Z,95.17
2018-11-26T09:00:43.072Z,95.17
2018-11-26T09:02:35.726Z,95.27
2018-11-26T09:03:35.620Z,95.84
2018-11-26T09:05:28.290Z,94.98
2018-11-26T09:06:28.164Z,94.98
2018-11-26T09:08:20.828Z,94.60
2018-11-26T09:09:20.708Z,94.89
2018-11-26T09:11:13.393Z,94.70
2018-11-26T09:12:13.258Z,94.98
2018-11-26T09:14:05.923Z,94.98
2018-11-26T09:15:05.804Z,94.79
2018-11-26T09:16:58.481Z,94.51
2018-11-26T09:17:58.354Z,94.51
2018-11-26T09:19:51.015Z,94.70
2018-11-26T09:20:50.898Z,94.42
2018-11-26T09:22:43.579Z,94.32
2018-11-26T09:23:43.450Z,94.89
2018-11-26T09:25:36.130Z,94.98
2018-11-26T09:26:35.997Z,94.79
2018-11-26T09:28:28.662Z,95.08
2018-11-26T09:29:28.546Z,94.70
2018-11-26T09:31:21.227Z,95.46
2018-11-26T09:32:21.091Z,94.89
2018-11-26T09:34:13.763Z,94.89
2018-11-26T09:35:13.653Z,94.98
2018-11-26T09:37:06.333Z,94.79
2018-11-26T09:38:06.202Z,95.17
2018-11-26T09:39:58.860Z,94.89
2018-11-26T09:40:58.746Z,94.70
2018-11-26T09:42:51.426Z,95.08
2018-11-26T09:43:51.300Z,94.51
2018-11-26T09:45:43.974Z,94.23
2018-11-26T09:46:43.846Z,94.42
2018-11-26T09:48:36.502Z,94.23
2018-11-26T09:49:36.393Z,94.23
2018-11-26T09:51:29.075Z,94.23
2018-11-26T09:52:28.948Z,94.51
2018-11-26T09:54:26.062Z,94.03
2018-11-26T09:55:21.496Z,93.84
2018-11-26T09:57:14.176Z,93.84
2018-11-26T09:58:14.043Z,93.94
2018-11-26T10:00:06.721Z,93.56
2018-11-26T10:01:06.613Z,94.13
2018-11-26T10:02:59.297Z,93.84
2018-11-26T10:03:59.167Z,94.13
2018-11-26T10:05:51.842Z,93.65
2018-11-26T10:06:51.724Z,93.65
2018-11-26T10:08:44.374Z,94.32
2018-11-26T10:09:44.267Z,94.13
2018-11-26T10:11:36.942Z,94.13
2018-11-26T10:12:36.814Z,93.75
2018-11-26T10:14:29.479Z,93.84
2018-11-26T10:15:29.375Z,93.65
2018-11-26T10:17:22.047Z,93.65
2018-11-26T10:18:21.926Z,93.08
2018-11-26T10:20:14.579Z,93.27
2018-11-26T10:21:14.465Z,93.27
2018-11-26T10:23:07.148Z,93.27
2018-11-26T10:24:07.016Z,92.99
2018-11-26T10:25:59.705Z,93.37
2018-11-26T10:26:59.569Z,93.46
2018-11-26T10:28:52.231Z,93.27
2018-11-26T10:29:52.110Z,92.80
2018-11-26T10:31:44.788Z,92.99
2018-11-26T10:32:44.663Z,93.46
2018-11-26T10:34:37.331Z,92.23
2018-11-26T10:35:37.213Z,92.71
2018-11-26T10:37:29.893Z,92.42
2018-11-26T10:38:29.769Z,91.94
2018-11-26T10:40:22.428Z,92.61
2018-11-26T10:41:22.363Z,92.94
2018-11-26T10:43:14.997Z,92.75
2018-11-26T10:44:14.870Z,92.08
2018-11-26T10:46:07.536Z,91.80
2018-11-26T10:47:07.418Z,92.18
2018-11-26T10:49:00.099Z,92.13
2018-11-26T10:49:59.974Z,92.80
2018-11-26T10:51:52.651Z,92.42
2018-11-26T10:52:52.524Z,92.32
2018-11-26T10:54:45.185Z,92.42
2018-11-26T10:55:45.086Z,92.80
2018-11-26T10:57:37.758Z,92.99
2018-11-26T10:58:37.627Z,92.51
2018-11-26T11:00:30.294Z,92.90
2018-11-26T11:01:30.178Z,92.90
2018-11-26T11:03:22.854Z,92.42
2018-11-26T11:04:22.724Z,92.61
2018-11-26T11:06:15.435Z,92.90
2018-11-26T11:07:15.283Z,93.08
2018-11-26T11:09:07.974Z,92.42
2018-11-26T11:10:07.842Z,92.90
2018-11-26T11:12:00.518Z,92.42
2018-11-26T11:13:00.395Z,92.42
2018-11-26T11:14:53.062Z,92.13
2018-11-26T11:15:52.948Z,92.80
2018-11-26T11:17:45.624Z,92.51
2018-11-26T11:18:45.499Z,92.80
2018-11-26T11:20:38.166Z,92.71
2018-11-26T11:21:38.057Z,92.71
2018-11-26T11:23:30.729Z,92.71
2018-11-26T11:24:30.604Z,92.71
2018-11-26T11:26:23.261Z,92.32
2018-11-26T11:27:23.150Z,92.61
2018-11-26T11:29:15.831Z,92.42
2018-11-26T11:30:15.709Z,91.85
2018-11-26T11:32:08.391Z,91.94
2018-11-26T11:34:20.363Z,91.99
2018-11-26T11:35:20.248Z,92.09
2018-11-26T11:37:12.923Z,92.66
2018-11-26T11:38:12.799Z,91.99
2018-11-26T11:40:05.459Z,92.18
2018-11-26T11:41:05.343Z,92.56
2018-11-26T11:42:58.018Z,92.56
2018-11-26T11:43:57.932Z,92.71
2018-11-26T11:45:50.551Z,92.04
2018-11-26T11:46:50.443Z,91.85
2018-11-26T11:48:43.118Z,91.94
2018-11-26T11:49:42.995Z,91.80
2018-11-26T11:51:35.658Z,91.80
2018-11-26T11:52:35.541Z,91.80
2018-11-26T11:54:28.219Z,92.47
2018-11-26T11:55:28.096Z,92.09
2018-11-26T11:57:20.780Z,91.80
2018-11-26T11:58:20.641Z,91.42
2018-11-26T12:00:13.307Z,91.80
2018-11-26T12:01:13.188Z,91.80
2018-11-26T12:03:05.870Z,91.80
2018-11-26T12:04:05.746Z,92.09
2018-11-26T12:05:58.402Z,91.80
2018-11-26T12:06:58.291Z,91.89
2018-11-26T12:08:50.967Z,92.13
2018-11-26T12:09:50.841Z,91.56
2018-11-26T12:11:43.505Z,91.56
2018-11-26T12:12:43.396Z,91.09
2018-11-26T12:14:36.064Z,90.80
2018-11-26T12:15:35.941Z,91.47
2018-11-26T12:17:28.605Z,91.38
2018-11-26T12:18:28.492Z,91.09
2018-11-26T12:20:21.174Z,90.61
2018-11-26T12:21:21.041Z,91.38
2018-11-26T12:23:13.720Z,91.47
2018-11-26T12:24:13.594Z,91.38
2018-11-26T12:26:06.387Z,91.85
2018-11-26T12:27:06.174Z,91.19
2018-11-26T12:28:58.857Z,90.61
2018-11-26T12:29:58.717Z,90.71
2018-11-26T12:31:51.381Z,90.80
2018-11-26T12:32:51.260Z,89.86
2018-11-26T12:34:43.943Z,89.86
2018-11-26T12:35:43.816Z,90.42
2018-11-26T12:37:36.473Z,90.42
2018-11-26T12:38:36.362Z,90.71
2018-11-26T12:40:29.034Z,90.33
2018-11-26T12:41:28.915Z,90.14
2018-11-26T12:43:21.590Z,90.19
2018-11-26T12:44:21.464Z,90.76
2018-11-26T12:46:14.121Z,90.95
2018-11-26T12:47:14.009Z,90.19
2018-11-26T12:49:06.687Z,90.95
2018-11-26T12:50:06.568Z,90.28
2018-11-26T12:51:59.220Z,90.95
2018-11-26T12:52:59.110Z,90.14
2018-11-26T12:54:51.790Z,91.09
2018-11-26T12:55:51.658Z,90.00
2018-11-26T12:57:44.323Z,90.80
2018-11-26T12:58:44.207Z,90.90
2018-11-26T13:00:36.898Z,90.33
2018-11-26T13:01:36.763Z,90.90
2018-11-26T13:03:29.441Z,90.23
2018-11-26T13:04:29.318Z,90.52
2018-11-26T13:06:21.982Z,90.28
2018-11-26T13:07:21.871Z,90.38
2018-11-26T13:09:14.548Z,90.76
2018-11-26T13:10:14.420Z,90.85
2018-11-26T13:12:07.083Z,91.42
2018-11-26T13:13:06.973Z,90.85
2018-11-26T13:15:00.661Z,90.85
2018-11-26T13:15:59.521Z,90.57
2018-11-26T13:17:52.192Z,90.85
2018-11-26T13:18:52.078Z,90.95
2018-11-26T13:20:44.755Z,90.76
2018-11-26T13:21:44.620Z,90.66
2018-11-26T13:23:37.299Z,90.76
2018-11-26T13:24:37.166Z,90.57
2018-11-26T13:26:29.823Z,90.95
2018-11-26T13:27:29.716Z,91.42
2018-11-26T13:29:22.394Z,90.66
2018-11-26T13:30:22.261Z,90.76
2018-11-26T13:32:14.933Z,90.57
2018-11-26T13:33:14.823Z,91.24
2018-11-26T13:35:07.613Z,91.33
2018-11-26T13:36:07.366Z,90.66
2018-11-26T13:38:00.027Z,91.33
2018-11-26T13:38:59.909Z,91.24
2018-11-26T13:40:52.597Z,91.42
2018-11-26T13:41:52.462Z,90.57
2018-11-26T13:43:45.151Z,91.04
2018-11-26T13:44:45.016Z,90.47
2018-11-26T13:46:37.676Z,90.57
2018-11-26T13:47:37.557Z,91.14
2018-11-26T13:49:30.244Z,90.85
2018-11-26T13:50:30.117Z,90.95
2018-11-26T13:52:22.781Z,89.90
2018-11-26T13:53:22.668Z,90.19
2018-11-26T13:55:15.846Z,90.38
2018-11-26T13:56:15.723Z,90.71
2018-11-26T13:58:08.381Z,91.19
2018-11-26T13:59:08.267Z,90.52
2018-11-26T14:01:00.943Z,91.42
2018-11-26T14:02:00.811Z,90.76
2018-11-26T14:03:53.486Z,90.95
2018-11-26T14:04:53.369Z,91.04
2018-11-26T14:06:46.048Z,91.42
2018-11-26T14:07:45.920Z,91.04
2018-11-26T14:09:38.595Z,91.04
2018-11-26T14:10:38.471Z,90.38
2018-11-26T14:12:31.137Z,90.85
2018-11-26T14:13:31.025Z,90.33
2018-11-26T14:15:23.701Z,90.14
2018-11-26T14:16:23.577Z,90.24
2018-11-26T14:18:16.399Z,90.33
2018-11-26T14:19:16.120Z,90.90
2018-11-26T14:21:08.802Z,90.90
2018-11-26T14:22:08.676Z,91.09
2018-11-26T14:24:01.337Z,91.28
2018-11-26T14:25:01.222Z,91.09
2018-11-26T14:26:53.901Z,90.81
2018-11-26T14:27:53.777Z,90.81
2018-11-26T14:29:46.450Z,90.52
2018-11-26T14:30:46.321Z,90.81
2018-11-26T14:32:38.984Z,90.24
2018-11-26T14:33:38.868Z,90.43
2018-11-26T14:35:31.547Z,90.14
2018-11-26T14:36:31.420Z,89.81
2018-11-26T14:38:24.079Z,89.86
2018-11-26T14:39:23.966Z,89.86
2018-11-26T14:41:16.645Z,89.29
2018-11-26T14:42:16.512Z,89.48
2018-11-26T14:44:09.172Z,90.05
2018-11-26T14:45:09.061Z,90.05
2018-11-26T14:47:01.742Z,90.05
2018-11-26T14:48:01.604Z,90.33
2018-11-26T14:49:54.283Z,90.14
2018-11-26T14:50:54.148Z,90.33
2018-11-26T14:52:46.810Z,90.14
2018-11-26T14:53:46.702Z,90.33
2018-11-26T14:55:39.374Z,90.81
2018-11-26T14:56:39.250Z,90.33
2018-11-26T14:58:31.907Z,90.24
2018-11-26T14:59:31.800Z,90.33
2018-11-26T15:01:24.474Z,90.33
2018-11-26T15:02:24.344Z,90.33
2018-11-26T15:04:17.008Z,90.24
2018-11-26T15:05:16.898Z,90.14
2018-11-26T15:07:09.567Z,90.33
2018-11-26T15:08:09.440Z,90.81
2018-11-26T15:10:02.114Z,90.52
2018-11-26T15:11:01.989Z,90.24
2018-11-26T15:12:54.649Z,91.00
2018-11-26T15:13:54.538Z,90.81
2018-11-26T15:15:47.217Z,90.71
2018-11-26T15:16:47.081Z,90.14
2018-11-26T15:18:39.755Z,90.52
2018-11-26T15:19:39.639Z,90.24
2018-11-26T15:21:32.319Z,90.33
2018-11-26T15:22:32.191Z,90.24
2018-11-26T15:24:24.859Z,90.14
2018-11-26T15:25:24.748Z,90.71
2018-11-26T15:27:17.423Z,90.43
2018-11-26T15:28:17.384Z,90.14
2018-11-26T15:30:09.948Z,90.81
2018-11-26T15:31:09.839Z,90.90
2018-11-26T15:33:02.514Z,90.52
2018-11-26T15:34:02.383Z,90.90
2018-11-26T15:35:55.059Z,90.52
2018-11-26T15:36:54.929Z,90.81
2018-11-26T15:38:47.594Z,90.33
2018-11-26T15:39:47.480Z,90.90
2018-11-26T15:41:40.162Z,90.43
2018-11-26T15:42:40.087Z,90.90
2018-11-26T15:44:32.686Z,91.09
2018-11-26T15:45:32.571Z,90.90
2018-11-26T15:47:25.240Z,90.81
2018-11-26T15:48:25.114Z,90.62
2018-11-26T15:50:17.781Z,90.14
2018-11-26T15:51:17.671Z,90.62
2018-11-26T15:53:10.344Z,90.33
2018-11-26T15:54:10.215Z,90.24
2018-11-26T15:56:02.894Z,90.14
2018-11-26T15:57:02.764Z,90.14
2018-11-26T15:58:55.428Z,90.24
2018-11-26T15:59:55.312Z,89.76
2018-11-26T16:01:47.986Z,90.24
2018-11-26T16:02:47.861Z,90.43
2018-11-26T16:04:40.518Z,90.24
2018-11-26T16:05:40.407Z,89.76
2018-11-26T16:07:33.094Z,90.14
2018-11-26T16:08:32.966Z,90.33
2018-11-26T16:10:25.622Z,91.00
2018-11-26T16:11:25.509Z,90.71
2018-11-26T16:13:18.281Z,90.14
2018-11-26T16:14:18.306Z,90.43
2018-11-26T16:16:10.792Z,90.14
2018-11-26T16:17:10.658Z,90.14
2018-11-26T16:19:03.315Z,90.81
2018-11-26T16:20:03.202Z,90.81
2018-11-26T16:21:55.882Z,90.33
2018-11-26T16:22:55.751Z,90.24
2018-11-26T16:24:48.407Z,90.05
2018-11-26T16:25:48.296Z,91.00
2018-11-26T16:27:41.227Z,90.81
2018-11-26T16:28:40.842Z,90.33
2018-11-26T16:30:33.578Z,90.81
2018-11-26T16:31:33.423Z,90.05
2018-11-26T16:33:26.206Z,90.43
2018-11-26T16:34:25.990Z,90.81
2018-11-26T16:36:18.648Z,90.81
2018-11-26T16:37:18.519Z,90.81
2018-11-26T16:39:11.603Z,90.71
2018-11-26T16:40:11.225Z,90.62
2018-11-26T16:42:03.901Z,90.05
2018-11-26T16:43:03.774Z,90.24
2018-11-26T16:44:56.472Z,91.09
2018-11-26T16:45:56.344Z,90.33
2018-11-26T16:47:49.025Z,90.14
2018-11-26T16:48:48.887Z,90.24
2018-11-26T16:50:41.549Z,90.05
2018-11-26T16:51:41.439Z,90.24
2018-11-26T16:53:34.117Z,89.76
2018-11-26T16:54:33.993Z,89.76
2018-11-26T16:56:26.658Z,90.33
2018-11-26T16:57:26.542Z,90.14
2018-11-26T16:59:19.725Z,90.24
2018-11-26T17:00:19.590Z,89.95
2018-11-26T17:02:12.265Z,90.90
2018-11-26T17:03:12.129Z,90.81
2018-11-26T17:05:04.793Z,90.33
2018-11-26T17:06:04.680Z,90.24
2018-11-26T17:07:57.356Z,90.33
2018-11-26T17:08:57.225Z,90.33
2018-11-26T17:10:50.046Z,90.71
2018-11-26T17:11:49.772Z,90.24
2018-11-26T17:13:42.450Z,91.00
2018-11-26T17:14:42.312Z,90.62
2018-11-26T17:16:34.981Z,91.00
2018-11-26T17:17:34.860Z,90.62
2018-11-26T17:19:27.738Z,90.62
2018-11-26T17:20:27.462Z,90.90
2018-11-26T17:22:20.741Z,90.90
2018-11-26T17:23:20.387Z,90.86
2018-11-26T17:25:13.048Z,90.90
2018-11-26T17:26:12.930Z,90.86
2018-11-26T17:28:05.618Z,90.71
2018-11-26T17:29:05.493Z,91.00
2018-11-26T17:30:58.155Z,90.81
2018-11-26T17:31:58.129Z,91.28
2018-11-26T17:33:50.740Z,91.00
2018-11-26T17:34:50.600Z,90.81
2018-11-26T17:36:43.267Z,90.86
2018-11-26T17:37:43.251Z,91.00
2018-11-26T17:39:35.834Z,90.86
2018-11-26T17:40:35.696Z,90.76
2018-11-26T17:42:28.391Z,90.48
2018-11-26T17:43:28.245Z,91.24
2018-11-26T17:45:20.906Z,91.33
2018-11-26T17:46:20.792Z,91.33
2018-11-26T17:48:13.466Z,91.47
2018-11-26T17:49:13.346Z,91.38
2018-11-26T17:51:06.011Z,91.19
2018-11-26T17:52:05.891Z,91.56
2018-11-26T17:53:58.571Z,91.19
2018-11-26T17:54:58.443Z,90.52
2018-11-26T17:56:51.122Z,90.62
2018-11-26T17:57:50.993Z,90.81
2018-11-26T17:59:43.693Z,90.52
2018-11-26T18:00:43.540Z,90.62
2018-11-26T18:02:36.205Z,91.24
2018-11-26T18:03:36.093Z,90.62
2018-11-26T18:05:28.764Z,90.90
2018-11-26T18:06:28.640Z,90.71
2018-11-26T18:08:21.298Z,90.81
2018-11-26T18:09:22.915Z,90.62
2018-11-26T18:11:13.858Z,91.09
2018-11-26T18:12:13.727Z,90.81
2018-11-26T18:14:06.405Z,90.67
2018-11-26T18:15:06.270Z,90.90
2018-11-26T18:16:58.933Z,91.24
2018-11-26T18:17:58.873Z,91.24
2018-11-26T18:19:51.982Z,91.09
2018-11-26T18:20:51.856Z,91.19
2018-11-26T18:22:44.516Z,91.47
2018-11-26T18:23:44.402Z,91.33
2018-11-26T18:25:37.129Z,91.09
2018-11-26T18:26:36.995Z,91.47
2018-11-26T18:28:29.658Z,90.43
2018-11-26T18:29:29.540Z,90.62
2018-11-26T18:31:22.214Z,90.81
2018-11-26T18:32:22.087Z,90.81
2018-11-26T18:34:14.747Z,90.62
2018-11-26T18:35:14.634Z,90.71
2018-11-26T18:37:07.325Z,90.71
2018-11-26T18:38:07.193Z,91.19
2018-11-26T18:39:59.872Z,90.76
2018-11-26T18:40:59.742Z,90.71
2018-11-26T18:42:52.399Z,91.09
2018-11-26T18:43:52.286Z,90.52
2018-11-26T18:45:44.960Z,91.19
2018-11-26T18:46:44.837Z,90.52
2018-11-26T18:48:37.498Z,91.14
2018-11-26T18:49:37.385Z,91.52
2018-11-26T18:51:30.061Z,91.24
2018-11-26T18:52:29.934Z,90.95
2018-11-26T18:54:22.595Z,90.57
2018-11-26T18:55:22.473Z,91.56
2018-11-26T18:57:15.151Z,91.19
2018-11-26T18:58:15.025Z,91.28
2018-11-26T19:00:07.705Z,91.47
2018-11-26T19:01:07.574Z,90.43
2018-11-26T19:03:00.232Z,90.52
2018-11-26T19:04:00.114Z,90.62
2018-11-26T19:05:52.798Z,91.38
2018-11-26T19:06:52.664Z,91.09
2018-11-26T19:08:45.320Z,90.71
2018-11-26T19:09:45.212Z,90.71
2018-11-26T19:11:37.891Z,90.81
2018-11-26T19:12:37.757Z,90.81
2018-11-26T19:14:30.416Z,90.81
2018-11-26T19:15:30.297Z,90.81
2018-11-26T19:17:22.975Z,90.90
2018-11-26T19:18:22.843Z,91.00
2018-11-26T19:20:15.507Z,90.57
2018-11-26T19:21:15.390Z,90.52
2018-11-26T19:23:08.065Z,91.19
2018-11-26T19:24:07.933Z,91.24
2018-11-26T19:26:00.601Z,90.52
2018-11-26T19:27:00.486Z,91.28
2018-11-26T19:28:53.160Z,90.43
2018-11-26T19:29:53.032Z,90.81
2018-11-26T19:31:45.718Z,90.52
2018-11-26T19:32:45.580Z,91.05
2018-11-26T19:34:38.255Z,90.90
2018-11-26T19:35:38.151Z,90.81
2018-11-26T19:37:30.826Z,91.38
2018-11-26T19:38:30.690Z,90.52
2018-11-26T19:40:23.349Z,91.47
2018-11-26T19:41:23.232Z,90.81
2018-11-26T19:43:15.911Z,90.81
2018-11-26T19:44:15.778Z,90.52
2018-11-26T19:46:08.440Z,90.81
2018-11-26T19:47:08.328Z,90.52
2018-11-26T19:49:01.002Z,90.71
2018-11-26T19:50:02.442Z,91.00
2018-11-26T19:51:53.529Z,90.62
2018-11-26T19:52:53.415Z,90.81
2018-11-26T19:54:46.090Z,90.52
2018-11-26T19:55:45.963Z,90.62
2018-11-26T19:57:38.622Z,90.43
2018-11-26T19:58:38.508Z,91.28
2018-11-26T20:00:31.185Z,90.43
2018-11-26T20:01:31.056Z,91.19
2018-11-26T20:03:23.727Z,91.38
2018-11-26T20:04:23.595Z,91.28
2018-11-26T20:06:16.258Z,91.19
2018-11-26T20:07:16.147Z,91.19
2018-11-26T20:09:08.836Z,91.09
2018-11-26T20:10:08.710Z,91.38
2018-11-26T20:12:01.369Z,91.28
2018-11-26T20:13:01.251Z,90.52
2018-11-26T20:14:53.930Z,91.19
2018-11-26T20:15:53.806Z,91.19
2018-11-26T20:17:46.497Z,91.38
2018-11-26T20:18:46.380Z,91.19
2018-11-26T20:20:39.061Z,91.38
2018-11-26T20:21:39.280Z,91.56
2018-11-26T20:23:31.909Z,91.28
2018-11-26T20:24:31.512Z,91.38
2018-11-26T20:26:24.170Z,91.38
2018-11-26T20:27:24.053Z,91.00
2018-11-26T20:29:16.731Z,91.38
2018-11-26T20:30:16.600Z,91.19
2018-11-26T20:32:09.261Z,91.19
2018-11-26T20:33:09.147Z,91.28
2018-11-26T20:35:01.825Z,91.09
2018-11-26T20:36:01.748Z,91.19
2018-11-26T20:37:54.432Z,91.09
2018-11-26T20:38:54.248Z,91.38
2018-11-26T20:40:47.280Z,90.81
2018-11-26T20:41:46.788Z,91.28
2018-11-26T20:43:39.454Z,91.56
2018-11-26T20:44:39.343Z,91.38
2018-11-26T20:46:32.018Z,90.71
2018-11-26T20:47:31.886Z,90.43
2018-11-26T20:49:24.665Z,91.28
2018-11-26T20:50:24.535Z,90.52
2018-11-26T20:52:17.227Z,91.28
2018-11-26T20:53:17.084Z,91.28
2018-11-26T20:55:09.765Z,91.19
2018-11-26T20:56:09.630Z,91.19
2018-11-26T20:58:02.797Z,91.28
2018-11-26T20:59:02.677Z,91.09
2018-11-26T21:00:55.370Z,91.19
2018-11-26T21:01:55.233Z,91.38
2018-11-26T21:03:47.896Z,91.09
2018-11-26T21:04:47.779Z,91.00
2018-11-26T21:06:40.457Z,91.09
2018-11-26T21:07:40.326Z,91.19
2018-11-26T21:09:32.991Z,91.47
2018-11-26T21:10:32.871Z,91.38
2018-11-26T21:12:25.547Z,91.28
2018-11-26T21:13:25.415Z,91.28
2018-11-26T21:15:18.095Z,91.28
2018-11-26T21:16:17.962Z,91.28
2018-11-26T21:18:10.651Z,91.09
2018-11-26T21:19:11.041Z,91.19
2018-11-26T21:21:03.726Z,91.56
2018-11-26T21:22:03.594Z,91.19
2018-11-26T21:23:56.249Z,91.19
2018-11-26T21:24:56.138Z,91.28
2018-11-26T21:26:48.813Z,91.09
2018-11-26T21:27:48.686Z,91.09
2018-11-26T21:29:41.474Z,91.28
2018-11-26T21:30:41.229Z,91.38
2018-11-26T21:32:34.094Z,91.66
2018-11-26T21:33:33.970Z,91.66
2018-11-26T21:35:26.654Z,91.56
2018-11-26T21:36:26.512Z,91.38
2018-11-26T21:38:19.661Z,91.00
2018-11-26T21:39:19.546Z,91.28
2018-11-26T21:41:12.225Z,91.19
2018-11-26T21:42:12.228Z,91.00
2018-11-26T21:44:04.760Z,91.19
2018-11-26T21:45:04.648Z,91.19
2018-11-26T21:46:57.330Z,91.47
2018-11-26T21:47:57.196Z,91.56
2018-11-26T21:49:49.858Z,91.38
2018-11-26T21:50:49.745Z,91.28
2018-11-26T21:52:42.422Z,91.28
2018-11-26T21:53:42.291Z,91.28
2018-11-26T21:55:34.961Z,91.56
2018-11-26T21:56:34.838Z,91.56
2018-11-26T21:58:27.525Z,91.66
2018-11-26T21:59:27.396Z,91.56
2018-11-26T22:01:20.072Z,91.56
2018-11-26T22:02:19.941Z,91.47
2018-11-26T22:04:12.608Z,91.19
2018-11-26T22:05:12.490Z,91.19
2018-11-26T22:07:05.181Z,91.00
2018-11-26T22:08:05.049Z,91.19
2018-11-26T22:09:57.711Z,91.00
2018-11-26T22:10:57.595Z,91.28
2018-11-26T22:12:50.278Z,91.19
2018-11-26T22:13:50.148Z,91.19
2018-11-26T22:15:42.812Z,91.38
2018-11-26T22:16:42.692Z,91.56
2018-11-26T22:18:35.378Z,91.19
2018-11-26T22:19:35.247Z,91.38
2018-11-26T22:21:27.909Z,91.75
2018-11-26T22:22:27.789Z,92.14
2018-11-26T22:24:20.469Z,91.94
2018-11-26T22:25:20.339Z,92.04
2018-11-26T22:27:13.014Z,91.19
2018-11-26T22:28:12.888Z,91.66
2018-11-26T22:30:05.547Z,91.38
2018-11-26T22:31:05.428Z,91.38
2018-11-26T22:32:58.115Z,91.19
2018-11-26T22:33:57.976Z,91.28
2018-11-26T22:35:50.645Z,91.28
2018-11-26T22:36:50.528Z,91.56
2018-11-26T22:38:43.208Z,91.66
2018-11-26T22:39:43.077Z,91.56
2018-11-26T22:41:35.746Z,91.00
2018-11-26T22:42:35.630Z,91.09
2018-11-26T22:44:28.312Z,91.66
2018-11-26T22:45:28.184Z,91.28
2018-11-26T22:47:20.857Z,91.75
2018-11-26T22:48:20.731Z,91.19
2018-11-26T22:50:13.397Z,91.19
2018-11-26T22:51:13.281Z,91.09
2018-11-26T22:53:05.954Z,91.28
2018-11-26T22:54:05.826Z,91.56
2018-11-26T22:55:58.480Z,91.47
2018-11-26T22:56:58.369Z,91.66
2018-11-26T22:58:51.045Z,91.56
2018-11-26T22:59:50.922Z,91.85
